Time;durP1;ratioP1;P1;durP2;ratioP2;P2;SDS_P1;SDS_P2;PMS_P1;PMS_P2;Temp;Humidity;BMP_temperature;BMP_pressure;BME280_temperature;BME280_humidity;BME280_pressure;Samples;Min_cycle;Max_cycle;Signal;HPM_P1;HPM_P2
2023/07/14 00:01:24;;;;;;;6.00;1.70;;;;;;;16.62;100.00;100330.00;4975407;28;20373;-67
2023/07/14 00:03:50;;;;;;;4.73;1.57;;;;;;;16.46;100.00;100332.13;4991515;28;20190;-65
2023/07/14 00:06:16;;;;;;;6.83;1.80;;;;;;;16.28;100.00;100323.94;4992157;28;20191;-67
2023/07/14 00:08:42;;;;;;;2.27;1.97;;;;;;;16.29;100.00;100326.41;4991173;28;20186;-66
2023/07/14 00:11:13;;;;;;;3.87;1.70;;;;;;;16.28;100.00;100326.53;4984357;28;20321;-66
2023/07/14 00:13:38;;;;;;;5.27;1.67;;;;;;;16.40;100.00;100327.38;5000210;28;20197;-67
2023/07/14 00:16:11;;;;;;;2.97;1.73;;;;;;;16.38;100.00;100321.47;5010756;28;20211;-67
2023/07/14 00:18:37;;;;;;;4.13;1.80;;;;;;;16.41;100.00;100326.41;5010326;28;20187;-65
2023/07/14 00:21:02;;;;;;;4.67;1.70;;;;;;;16.40;100.00;100323.00;5002351;28;20222;-66
2023/07/14 00:23:27;;;;;;;3.70;1.83;;;;;;;16.38;100.00;100330.06;5009874;28;20178;-66
2023/07/14 00:25:53;;;;;;;5.87;1.87;;;;;;;16.34;100.00;100325.25;5009095;28;20259;-65
2023/07/14 00:28:21;;;;;;;1.70;1.43;;;;;;;16.32;100.00;100324.53;5010713;28;20313;-65
2023/07/14 00:30:48;;;;;;;3.77;1.47;;;;;;;16.34;100.00;100325.25;5005226;28;20253;-66
2023/07/14 00:33:18;;;;;;;4.30;1.63;;;;;;;16.28;100.00;100321.34;5003138;28;20616;-65
2023/07/14 00:35:45;;;;;;;4.13;1.97;;;;;;;16.16;100.00;100324.84;5001137;28;20211;-65
2023/07/14 00:38:11;;;;;;;5.90;1.77;;;;;;;16.40;100.00;100323.00;5008285;28;20731;-66
2023/07/14 00:40:40;;;;;;;3.73;1.67;;;;;;;16.48;100.00;100326.78;5005208;28;20266;-66
2023/07/14 00:43:11;;;;;;;2.47;1.60;;;;;;;16.54;100.00;100319.34;5010079;28;20712;-66
2023/07/14 00:45:38;;;;;;;3.53;1.60;;;;;;;16.62;100.00;100316.16;5009444;28;20309;-66
2023/07/14 00:48:04;;;;;;;4.57;1.60;;;;;;;16.57;100.00;100318.28;5010128;28;20967;-66
2023/07/14 00:50:32;;;;;;;7.87;1.90;;;;;;;16.57;100.00;100318.28;5002026;28;20253;-66
2023/07/14 00:53:02;;;;;;;3.87;1.83;;;;;;;16.60;100.00;100307.69;5010085;28;20262;-66
2023/07/14 00:55:39;;;;;;;3.73;1.40;;;;;;;16.64;100.00;100314.28;4999007;28;20686;-66
2023/07/14 00:58:12;;;;;;;2.27;1.57;;;;;;;16.71;100.00;100314.66;4990998;28;20266;-66
2023/07/14 01:00:37;;;;;;;2.73;1.50;;;;;;;16.82;100.00;100309.47;5003070;28;20646;-66
2023/07/14 01:03:06;;;;;;;2.57;1.70;;;;;;;16.88;100.00;100298.59;5007348;28;20202;-66
2023/07/14 01:05:32;;;;;;;3.30;1.60;;;;;;;16.90;100.00;100298.47;4994190;28;20222;-66
2023/07/14 01:07:58;;;;;;;2.67;1.73;;;;;;;16.94;100.00;100300.75;4994723;28;20188;-66
2023/07/14 01:10:27;;;;;;;5.20;2.07;;;;;;;17.01;100.00;100297.66;4987170;28;20242;-67
2023/07/14 01:12:58;;;;;;;4.03;1.80;;;;;;;17.06;100.00;100296.34;4994321;28;20183;-65
2023/07/14 01:15:24;;;;;;;5.00;1.63;;;;;;;17.02;100.00;100300.13;4994020;28;20229;-66
2023/07/14 01:17:51;;;;;;;3.30;1.90;;;;;;;17.03;100.00;100301.78;4995432;28;20658;-67
2023/07/14 01:20:16;;;;;;;2.67;1.50;;;;;;;17.12;100.00;100305.44;4985681;28;20175;-66
2023/07/14 01:22:53;;;;;;;3.60;1.53;;;;;;;17.05;100.00;100299.88;5010133;28;20192;-67
2023/07/14 01:25:44;;;;;;;4.20;1.57;;;;;;;17.16;100.00;100301.63;4994613;28;20266;-67
2023/07/14 01:28:12;;;;;;;1.97;1.40;;;;;;;17.21;100.00;100306.47;4984954;28;20235;-68
2023/07/14 01:30:39;;;;;;;1.83;1.53;;;;;;;17.07;100.00;100308.38;4987268;28;20223;-65
2023/07/14 01:33:11;;;;;;;8.53;1.73;;;;;;;16.89;100.00;100305.44;4993872;28;20569;-66
2023/07/14 01:35:39;;;;;;;1.83;1.60;;;;;;;17.01;100.00;100308.06;4993578;28;20194;-66
2023/07/14 01:38:05;;;;;;;6.67;1.93;;;;;;;17.02;100.00;100302.72;5001247;28;20206;-66
2023/07/14 01:40:33;;;;;;;2.80;1.63;;;;;;;16.80;100.00;100303.53;4990030;28;20348;-66
2023/07/14 01:43:02;;;;;;;3.50;1.70;;;;;;;16.93;100.00;100304.28;5006610;28;20191;-67
2023/07/14 01:45:34;;;;;;;2.07;1.53;;;;;;;16.97;100.00;100306.63;4993593;28;20619;-66
2023/07/14 01:48:02;;;;;;;3.30;1.67;;;;;;;17.05;100.00;100305.06;5005098;28;20280;-66
2023/07/14 01:50:37;;;;;;;3.67;1.60;;;;;;;16.91;100.00;100300.97;5001219;28;20238;-66
2023/07/14 01:53:09;;;;;;;3.77;1.57;;;;;;;16.93;100.00;100291.28;4993707;28;20175;-66
2023/07/14 01:55:36;;;;;;;3.23;1.60;;;;;;;17.02;100.00;100294.13;4992468;28;20231;-67
2023/07/14 01:58:12;;;;;;;5.97;1.90;;;;;;;16.84;100.00;100293.75;4994920;28;20184;-66
2023/07/14 02:00:40;;;;;;;4.23;2.13;;;;;;;16.76;100.00;100289.16;4990223;28;20237;-67
2023/07/14 02:03:09;;;;;;;3.63;1.53;;;;;;;16.69;100.00;100299.16;4988703;28;20202;-67
2023/07/14 02:05:37;;;;;;;2.10;1.60;;;;;;;16.67;100.00;100295.03;5012262;28;20718;-66
2023/07/14 02:08:05;;;;;;;3.33;1.90;;;;;;;16.67;100.00;100289.84;5009970;28;20180;-66
2023/07/14 02:10:32;;;;;;;5.60;1.87;;;;;;;16.66;100.00;100298.56;4996112;28;20305;-66
2023/07/14 02:12:59;;;;;;;3.83;1.80;;;;;;;16.65;100.00;100297.75;5012392;28;20190;-66
2023/07/14 02:15:31;;;;;;;3.53;1.93;;;;;;;16.58;100.00;100293.97;5010869;28;20203;-67
2023/07/14 02:17:58;;;;;;;2.87;1.87;;;;;;;16.58;100.00;100289.63;5011845;28;20175;-66
2023/07/14 02:20:30;;;;;;;2.63;1.63;;;;;;;16.51;100.00;100290.19;5004721;28;20783;-67
2023/07/14 02:22:59;;;;;;;3.93;1.70;;;;;;;16.38;100.00;100285.94;5011046;28;20178;-66
2023/07/14 02:25:30;;;;;;;5.07;1.77;;;;;;;16.32;100.00;100288.19;5011739;28;20217;-65
2023/07/14 02:27:55;;;;;;;4.57;1.90;;;;;;;16.38;100.00;100283.34;5011323;28;20233;-66
2023/07/14 02:30:23;;;;;;;4.13;2.00;;;;;;;16.36;100.00;100287.84;5003758;28;20223;-66
2023/07/14 02:33:14;;;;;;;3.83;1.70;;;;;;;16.15;100.00;100282.50;5009783;28;20265;-66
2023/07/14 02:35:58;;;;;;;4.37;1.80;;;;;;;16.17;100.00;100282.38;5009756;28;20294;-66
2023/07/14 02:38:24;;;;;;;3.70;2.07;;;;;;;16.19;100.00;100280.50;5010669;28;20670;-66
2023/07/14 02:41:16;;;;;;;6.53;2.43;;;;;;;16.03;100.00;100278.25;5006596;28;20343;-66
2023/07/14 02:43:44;;;;;;;2.47;1.83;;;;;;;16.06;100.00;100280.59;4988134;28;20179;-65
2023/07/14 02:46:25;;;;;;;6.20;2.03;;;;;;;15.97;100.00;100280.31;5010688;28;20182;-67
2023/07/14 02:48:51;;;;;;;3.47;2.00;;;;;;;15.97;100.00;100275.13;5009192;28;20642;-65
2023/07/14 02:51:17;;;;;;;5.03;2.47;;;;;;;15.98;100.00;100281.16;5003528;28;20253;-65
2023/07/14 02:53:42;;;;;;;3.80;1.70;;;;;;;15.94;100.00;100282.34;5015620;28;20238;-65
2023/07/14 02:56:08;;;;;;;3.90;1.80;;;;;;;15.90;100.00;100283.50;5011211;28;20281;-64
2023/07/14 02:58:34;;;;;;;5.50;2.03;;;;;;;15.85;100.00;100283.84;5008356;28;20205;-65
2023/07/14 03:01:00;;;;;;;5.80;1.80;;;;;;;15.83;100.00;100280.53;4999408;28;20276;-65
2023/07/14 03:03:27;;;;;;;2.70;1.83;;;;;;;15.77;100.00;100278.38;4993007;28;20175;-66
2023/07/14 03:05:53;;;;;;;4.27;2.33;;;;;;;15.79;100.00;100284.28;4992185;28;20171;-65
2023/07/14 03:08:20;;;;;;;4.87;1.47;;;;;;;15.75;100.00;100281.09;4992402;28;20223;-67
2023/07/14 03:10:49;;;;;;;3.87;1.87;;;;;;;15.75;100.00;100275.91;4985639;28;20691;-66
2023/07/14 03:13:16;;;;;;;3.00;2.07;;;;;;;15.70;100.00;100280.56;5002553;28;20191;-66
2023/07/14 03:15:42;;;;;;;3.80;2.00;;;;;;;15.69;100.00;100284.13;4984907;28;20230;-65
2023/07/14 03:18:08;;;;;;;2.60;1.77;;;;;;;15.67;100.00;100286.00;4997987;28;20199;-65
2023/07/14 03:20:33;;;;;;;4.37;1.77;;;;;;;15.67;100.00;100280.81;5006752;28;20252;-65
2023/07/14 03:22:58;;;;;;;6.17;2.00;;;;;;;15.67;100.00;100280.00;5011399;28;20194;-65
2023/07/14 03:25:24;;;;;;;3.97;1.80;;;;;;;15.68;100.00;100277.28;5012261;28;20190;-65
2023/07/14 03:27:49;;;;;;;3.90;1.90;;;;;;;15.66;100.00;100276.56;5010261;28;20250;-67
2023/07/14 03:30:14;;;;;;;5.63;2.07;;;;;;;15.71;100.00;100282.22;4983600;28;20187;-66
2023/07/14 03:32:40;;;;;;;3.77;1.80;;;;;;;15.69;100.00;100278.09;5010316;28;20182;-66
2023/07/14 03:35:06;;;;;;;5.70;2.30;;;;;;;15.65;100.00;100280.94;5009940;28;20198;-66
2023/07/14 03:37:32;;;;;;;3.90;1.93;;;;;;;15.69;100.00;100275.50;5008533;28;20661;-66
2023/07/14 03:39:57;;;;;;;7.90;2.17;;;;;;;15.71;100.00;100277.03;5012239;28;20696;-65
2023/07/14 03:42:22;;;;;;;6.47;2.10;;;;;;;15.78;100.00;100274.84;5016823;28;20226;-66
2023/07/14 03:44:48;;;;;;;3.53;1.70;;;;;;;15.78;100.00;100273.06;5011843;28;20189;-65
2023/07/14 03:47:14;;;;;;;3.13;2.00;;;;;;;15.86;100.00;100275.13;5010022;28;20216;-65
2023/07/14 03:49:39;;;;;;;2.70;2.00;;;;;;;15.89;100.00;100281.84;5010706;28;20574;-65
2023/07/14 03:52:05;;;;;;;2.73;1.67;;;;;;;15.93;100.00;100276.31;5016578;28;20575;-66
2023/07/14 03:54:31;;;;;;;2.73;2.00;;;;;;;15.82;100.00;100281.47;5009976;28;20187;-66
2023/07/14 03:56:58;;;;;;;3.63;1.80;;;;;;;15.89;100.00;100274.91;5009780;28;20209;-65
2023/07/14 03:59:23;;;;;;;3.77;2.10;;;;;;;15.93;100.00;100275.50;5011982;28;20179;-65
2023/07/14 04:01:49;;;;;;;2.70;1.80;;;;;;;15.82;100.00;100276.28;5010283;28;20234;-66
2023/07/14 04:04:14;;;;;;;6.47;2.40;;;;;;;15.90;100.00;100273.97;4993936;28;20210;-67
2023/07/14 04:06:40;;;;;;;3.50;2.20;;;;;;;15.90;100.00;100268.78;4992639;28;20558;-66
2023/07/14 04:09:06;;;;;;;3.50;2.10;;;;;;;15.92;100.00;100266.06;4992620;28;20273;-66
2023/07/14 04:11:34;;;;;;;6.40;2.47;;;;;;;16.06;100.00;100263.28;4993936;28;20230;-65
2023/07/14 04:14:01;;;;;;;5.47;1.93;;;;;;;16.17;100.00;100251.25;4996056;28;20266;-68
2023/07/14 04:16:26;;;;;;;3.47;1.73;;;;;;;16.25;100.00;100254.09;4990615;28;20680;-66
2023/07/14 04:18:51;;;;;;;4.47;2.40;;;;;;;16.29;100.00;100260.69;4992483;28;20267;-66
2023/07/14 04:21:17;;;;;;;2.47;2.00;;;;;;;16.32;100.00;100257.03;4991594;28;20222;-67
2023/07/14 04:23:42;;;;;;;9.13;2.77;;;;;;;16.35;100.00;100249.00;4998918;28;20230;-66
2023/07/14 04:26:08;;;;;;;10.43;2.50;;;;;;;16.21;100.00;100250.06;4992386;28;20209;-66
2023/07/14 04:28:35;;;;;;;6.97;2.30;;;;;;;16.43;100.00;100251.84;4992376;28;20691;-65
2023/07/14 04:31:01;;;;;;;5.53;2.17;;;;;;;16.55;100.00;100255.28;4989854;28;20310;-66
2023/07/14 04:33:27;;;;;;;3.03;1.80;;;;;;;16.69;100.00;100249.00;4978962;28;20262;-66
2023/07/14 04:35:54;;;;;;;7.63;2.20;;;;;;;16.84;100.00;100246.97;4989416;28;20221;-64
2023/07/14 04:38:21;;;;;;;6.07;2.47;;;;;;;16.98;100.00;100238.97;5000601;28;20206;-66
2023/07/14 04:40:47;;;;;;;6.00;2.20;;;;;;;17.15;100.00;100245.41;4983897;28;20222;-66
2023/07/14 04:43:14;;;;;;;3.83;2.10;;;;;;;17.32;100.00;100236.25;5001806;28;20175;-66
2023/07/14 04:45:40;;;;;;;4.40;1.93;;;;;;;17.47;100.00;100241.16;5000225;28;20206;-66
2023/07/14 04:48:14;;;;;;;3.50;2.00;;;;;;;17.55;100.00;100243.94;5009818;28;20626;-66
2023/07/14 04:50:39;;;;;;;4.80;1.90;;;;;;;17.43;100.00;100248.38;4978425;28;20689;-67
2023/07/14 04:53:06;;;;;;;5.83;2.13;;;;;;;17.57;100.00;100249.84;5020962;28;20190;-66
2023/07/14 04:55:38;;;;;;;3.70;1.97;;;;;;;17.66;100.00;100243.06;5009341;28;20565;-65
2023/07/14 04:58:04;;;;;;;7.53;2.53;;;;;;;17.88;100.00;100247.34;5010091;28;20237;-65
2023/07/14 05:00:31;;;;;;;4.17;1.93;;;;;;;18.04;100.00;100244.31;5003508;28;20309;-65
2023/07/14 05:02:56;;;;;;;6.00;2.07;;;;;;;18.17;100.00;100246.69;4996027;28;20230;-66
2023/07/14 05:05:23;;;;;;;4.13;2.17;;;;;;;18.24;100.00;100250.44;5002388;28;20607;-65
2023/07/14 05:07:49;;;;;;;3.87;2.73;;;;;;;18.27;100.00;100254.56;4991127;28;20254;-66
2023/07/14 05:10:16;;;;;;;5.97;2.03;;;;;;;18.26;100.00;100245.94;4983723;28;20211;-67
2023/07/14 05:12:41;;;;;;;3.27;2.40;;;;;;;18.19;100.00;100250.81;5006043;28;20194;-67
2023/07/14 05:15:10;;;;;;;5.17;2.13;;;;;;;18.27;100.00;100250.19;4991362;28;20667;-65
2023/07/14 05:17:37;;;;;;;4.77;2.33;;;;;;;18.26;100.00;100252.91;4991807;28;20190;-67
2023/07/14 05:20:06;;;;;;;3.40;2.30;;;;;;;18.34;100.00;100247.88;4987060;28;20602;-67
2023/07/14 05:22:32;;;;;;;6.87;2.30;;;;;;;18.46;100.00;100246.00;5008569;28;20289;-67
2023/07/14 05:24:57;;;;;;;3.30;2.33;;;;;;;18.37;100.00;100247.63;5010948;28;20189;-66
2023/07/14 05:27:23;;;;;;;6.63;2.20;;;;;;;18.36;100.00;100251.19;4997228;28;20532;-57
2023/07/14 05:29:49;;;;;;;8.70;2.53;;;;;;;18.48;100.00;100246.69;4993596;28;20529;-57
2023/07/14 05:32:15;;;;;;;9.33;2.37;;;;;;;18.75;100.00;100246.09;4995027;28;20239;-58
2023/07/14 05:34:40;;;;;;;5.63;2.27;;;;;;;19.09;100.00;100252.75;4991320;28;20186;-58
2023/07/14 05:37:06;;;;;;;2.93;2.10;;;;;;;19.27;100.00;100243.31;4991548;28;20787;-58
2023/07/14 05:39:31;;;;;;;5.83;2.10;;;;;;;19.38;100.00;100242.38;4991680;28;20266;-58
2023/07/14 05:41:58;;;;;;;3.93;2.17;;;;;;;19.60;100.00;100232.63;4995843;28;20329;-58
2023/07/14 05:44:24;;;;;;;5.00;2.07;;;;;;;19.56;100.00;100228.63;4992872;28;20179;-58
2023/07/14 05:46:50;;;;;;;5.30;2.07;;;;;;;19.74;100.00;100229.56;4993189;28;20194;-58
2023/07/14 05:49:16;;;;;;;4.37;2.27;;;;;;;19.81;100.00;100225.44;4993022;28;20179;-58
2023/07/14 05:51:41;;;;;;;7.40;2.20;;;;;;;20.07;100.00;100222.22;4998822;28;20237;-58
2023/07/14 05:54:07;;;;;;;6.23;2.30;;;;;;;20.24;100.00;100225.88;4997428;28;20596;-58
2023/07/14 05:56:32;;;;;;;5.60;2.47;;;;;;;20.56;98.50;100229.84;4994664;28;20214;-58
2023/07/14 05:58:57;;;;;;;6.20;2.10;;;;;;;20.31;98.79;100231.34;4995080;28;20564;-58
2023/07/14 06:01:22;;;;;;;9.00;2.50;;;;;;;20.32;99.96;100223.38;4995436;28;20322;-58
2023/07/14 06:03:48;;;;;;;10.50;2.80;;;;;;;20.47;100.00;100228.13;5007863;28;20194;-58
2023/07/14 06:06:13;;;;;;;5.70;2.50;;;;;;;20.50;100.00;100229.63;5013167;28;20190;-58
2023/07/14 06:08:38;;;;;;;6.57;2.27;;;;;;;20.90;97.91;100225.81;5014385;28;20183;-58
2023/07/14 06:11:05;;;;;;;8.90;2.30;;;;;;;21.10;98.44;100226.53;4996808;28;20694;-58
2023/07/14 06:13:30;;;;;;;13.97;2.57;;;;;;;21.21;94.11;100220.22;4990163;28;20551;-58
2023/07/14 06:15:56;;;;;;;3.90;2.30;;;;;;;21.25;94.87;100218.97;4994181;28;20204;-58
2023/07/14 06:18:22;;;;;;;6.07;2.00;;;;;;;21.50;93.32;100219.19;5001162;28;20244;-59
2023/07/14 06:20:48;;;;;;;4.03;2.13;;;;;;;21.59;90.67;100216.50;4995183;28;20623;-59
2023/07/14 06:23:13;;;;;;;6.97;2.20;;;;;;;21.97;84.10;100216.25;5004334;28;20331;-58
2023/07/14 06:25:38;;;;;;;3.70;2.27;;;;;;;22.08;83.28;100204.69;4995150;28;20191;-58
2023/07/14 06:28:04;;;;;;;4.00;2.17;;;;;;;21.82;83.17;100207.28;5014007;28;20372;-59
2023/07/14 06:30:29;;;;;;;6.47;2.30;;;;;;;22.13;82.40;100209.44;5006688;28;20563;-59
2023/07/14 06:32:54;;;;;;;4.60;2.10;;;;;;;22.39;79.87;100205.00;5025418;28;20175;-59
2023/07/14 06:35:22;;;;;;;3.13;1.87;;;;;;;22.53;77.84;100208.00;5012225;28;20264;-58
2023/07/14 06:37:47;;;;;;;2.63;1.97;;;;;;;23.78;70.09;100204.47;5012435;28;20178;-57
2023/07/14 06:40:12;;;;;;;6.07;2.43;;;;;;;25.15;60.49;100204.16;5003984;28;20645;-59
2023/07/14 06:42:38;;;;;;;3.57;2.10;;;;;;;25.66;54.21;100205.38;5020085;28;20183;-58
2023/07/14 06:45:04;;;;;;;5.25;2.33;;;;;;;24.50;58.75;100204.38;4994688;28;20658;-58
2023/07/14 06:47:32;;;;;;;6.18;2.70;;;;;;;24.18;61.30;100200.09;4994631;28;20191;-58
2023/07/14 06:49:58;;;;;;;5.80;2.70;;;;;;;25.25;55.02;100206.56;4994255;28;20606;-57
2023/07/14 06:52:23;;;;;;;4.75;2.15;;;;;;;25.53;53.03;100200.75;4998977;28;20246;-57
2023/07/14 06:54:48;;;;;;;7.97;2.47;;;;;;;24.65;56.77;100188.72;4993066;28;20242;-57
2023/07/14 06:57:14;;;;;;;3.75;2.67;;;;;;;24.77;59.23;100194.41;4994067;28;20608;-58
2023/07/14 06:59:39;;;;;;;6.95;2.40;;;;;;;25.14;56.36;100199.88;4992990;28;20187;-59
2023/07/14 07:02:05;;;;;;;5.93;2.40;;;;;;;24.67;57.33;100198.25;4986871;28;20218;-58
2023/07/14 07:04:35;;;;;;;7.03;2.60;;;;;;;25.45;53.87;100197.19;5001115;28;20270;-59
2023/07/14 07:07:00;;;;;;;6.65;2.47;;;;;;;25.68;52.61;100198.13;5002835;28;20378;-58
2023/07/14 07:09:25;;;;;;;5.65;2.63;;;;;;;25.60;51.62;100184.03;4994679;28;20270;-59
2023/07/14 07:11:51;;;;;;;6.55;2.85;;;;;;;25.26;53.92;100192.41;5014776;28;20217;-59
2023/07/14 07:14:16;;;;;;;11.40;2.50;;;;;;;25.64;54.91;100187.13;5014112;28;20605;-59
2023/07/14 07:16:41;;;;;;;5.43;2.80;;;;;;;25.67;52.36;100188.59;5015213;28;20245;-59
2023/07/14 07:19:06;;;;;;;4.22;2.00;;;;;;;25.00;59.38;100188.31;5015351;28;20680;-57
2023/07/14 07:21:32;;;;;;;8.20;2.60;;;;;;;25.20;57.11;100191.28;5013015;28;20236;-58
2023/07/14 07:23:58;;;;;;;6.28;2.00;;;;;;;25.13;58.35;100187.72;5015560;28;20179;-59
2023/07/14 07:26:23;;;;;;;7.70;2.30;;;;;;;24.41;59.85;100183.56;5001501;28;20241;-58
2023/07/14 07:28:48;;;;;;;8.10;2.20;;;;;;;24.13;63.03;100176.97;4999368;28;20866;-58
2023/07/14 07:31:14;;;;;;;4.75;2.20;;;;;;;26.13;53.69;100171.81;4965311;28;20314;-58
2023/07/14 07:33:40;;;;;;;4.47;2.42;;;;;;;27.35;45.82;100172.78;4992671;28;20190;-58
2023/07/14 07:36:15;;;;;;;6.72;2.40;;;;;;;28.57;41.98;100167.91;4992344;28;20286;-58
2023/07/14 07:38:43;;;;;;;6.05;2.38;;;;;;;29.42;38.60;100172.66;4992852;28;20202;-58
2023/07/14 07:41:08;;;;;;;6.63;2.13;;;;;;;29.65;37.93;100175.88;4992905;28;20229;-58
2023/07/14 07:43:34;;;;;;;7.30;2.05;;;;;;;30.84;35.34;100178.22;5004867;28;20187;-58
2023/07/14 07:45:59;;;;;;;5.07;2.10;;;;;;;31.35;34.55;100171.84;4998277;28;20183;-58
2023/07/14 07:48:24;;;;;;;2.42;1.83;;;;;;;31.70;33.61;100173.16;4996726;28;20206;-58
2023/07/14 07:50:50;;;;;;;10.20;2.40;;;;;;;33.17;30.93;100172.97;4991875;28;20701;-58
2023/07/14 07:53:15;;;;;;;9.98;2.33;;;;;;;32.72;31.16;100176.13;5001635;28;20262;-58
2023/07/14 07:55:40;;;;;;;6.15;2.45;;;;;;;31.87;32.99;100170.72;4992084;28;20521;-58
2023/07/14 07:58:06;;;;;;;6.95;2.22;;;;;;;30.80;34.72;100174.34;4995895;28;20175;-58
2023/07/14 08:00:31;;;;;;;8.00;2.30;;;;;;;29.62;36.80;100169.13;5001312;28;20390;-58
2023/07/14 08:02:56;;;;;;;7.68;2.00;;;;;;;29.89;37.22;100159.28;4997604;28;20194;-57
2023/07/14 08:05:24;;;;;;;5.05;2.28;;;;;;;31.28;33.99;100171.09;4992136;28;20194;-58
2023/07/14 08:07:49;;;;;;;6.60;2.30;;;;;;;29.78;36.48;100160.75;4992100;28;20194;-58
2023/07/14 08:10:14;;;;;;;9.60;2.40;;;;;;;30.26;35.65;100154.22;5001194;28;20182;-58
2023/07/14 08:12:40;;;;;;;6.30;2.05;;;;;;;30.10;35.23;100155.56;5017810;28;20184;-60
2023/07/14 08:15:05;;;;;;;8.95;2.85;;;;;;;31.29;33.92;100155.97;5010229;28;20182;-58
2023/07/14 08:17:31;;;;;;;7.13;2.28;;;;;;;31.30;33.11;100153.09;5009774;28;20661;-58
2023/07/14 08:19:57;;;;;;;7.00;2.35;;;;;;;28.90;36.61;100142.50;5010840;28;20183;-59
2023/07/14 08:22:23;;;;;;;6.25;2.15;;;;;;;29.44;37.49;100148.59;5015092;28;20226;-58
2023/07/14 08:24:48;;;;;;;5.00;2.30;;;;;;;30.83;34.69;100148.16;5010374;28;20179;-58
2023/07/14 08:27:14;;;;;;;4.93;2.30;;;;;;;31.90;32.87;100162.28;5006092;28;20703;-57
2023/07/14 08:29:40;;;;;;;4.30;1.70;;;;;;;32.39;32.23;100169.44;5008173;28;20198;-58
2023/07/14 08:32:06;;;;;;;4.90;1.80;;;;;;;32.15;32.28;100154.19;4998193;28;20273;-58
2023/07/14 08:34:31;;;;;;;5.65;1.90;;;;;;;33.47;30.72;100154.19;4989604;28;20643;-59
2023/07/14 08:36:56;;;;;;;7.68;1.80;;;;;;;32.70;30.47;100159.56;4991988;28;20199;-59
2023/07/14 08:39:22;;;;;;;35.03;4.93;;;;;;;33.20;30.08;100147.72;4992064;28;20207;-58
2023/07/14 08:41:52;;;;;;;9.85;2.10;;;;;;;32.95;30.07;100152.22;4997861;28;20230;-58
2023/07/14 08:44:55;;;;;;;5.00;2.10;;;;;;;31.98;32.04;100161.19;4994845;28;20230;-58
2023/07/14 08:47:29;;;;;;;4.28;2.05;;;;;;;32.96;30.09;100150.38;4952498;28;20668;-57
2023/07/14 08:50:13;;;;;;;7.75;1.88;;;;;;;32.94;29.27;100157.78;4951900;28;20192;-59
2023/07/14 08:52:39;;;;;;;6.13;1.88;;;;;;;32.92;29.51;100151.88;4926203;29;20240;-58
2023/07/14 08:55:34;;;;;;;10.50;1.85;;;;;;;32.93;30.95;100150.81;4952672;28;20222;-58
2023/07/14 08:58:10;;;;;;;3.60;1.92;;;;;;;29.57;34.22;100156.53;4912436;29;20559;-58
2023/07/14 09:00:44;;;;;;;3.92;1.50;;;;;;;31.68;31.80;100152.13;4903062;29;20236;-59
2023/07/14 09:03:14;;;;;;;4.22;2.00;;;;;;;33.42;29.06;100153.28;4912947;29;20337;-59
2023/07/14 09:05:46;;;;;;;5.05;1.65;;;;;;;32.16;30.26;100155.00;4912143;29;20194;-59
2023/07/14 09:08:12;;;;;;;3.58;1.95;;;;;;;31.53;32.75;100159.59;4912651;29;20202;-58
2023/07/14 09:10:55;;;;;;;4.78;1.63;;;;;;;31.83;31.89;100149.06;4902994;29;20255;-59
2023/07/14 09:13:38;;;;;;;5.65;2.03;;;;;;;31.09;32.05;100148.22;4904015;29;20221;-58
2023/07/14 09:16:06;;;;;;;7.88;2.28;;;;;;;31.36;32.04;100143.44;4911790;29;20225;-58
2023/07/14 09:18:48;;;;;;;4.38;1.65;;;;;;;31.82;31.14;100146.66;4947414;28;20528;-58
2023/07/14 09:21:23;;;;;;;7.82;2.13;;;;;;;30.15;33.25;100135.53;4959506;28;20232;-57
2023/07/14 09:24:10;;;;;;;11.07;2.08;;;;;;;30.23;33.71;100135.28;4969778;28;20666;-57
2023/07/14 09:26:41;;;;;;;5.40;1.40;;;;;;;31.53;31.19;100128.53;4973500;28;20191;-60
2023/07/14 09:29:12;;;;;;;18.77;2.78;;;;;;;32.09;30.28;100125.00;4973386;28;20249;-58
2023/07/14 09:31:48;;;;;;;4.93;1.77;;;;;;;32.85;30.31;100117.38;4963142;28;20231;-58
2023/07/14 09:34:25;;;;;;;6.60;2.15;;;;;;;34.39;27.38;100113.53;4985849;28;20273;-58
2023/07/14 09:36:52;;;;;;;8.52;2.15;;;;;;;33.76;28.34;100119.53;5012486;28;20617;-58
2023/07/14 09:39:35;;;;;;;7.10;1.55;;;;;;;33.43;28.33;100107.72;5013124;28;20211;-59
2023/07/14 09:42:05;;;;;;;10.88;2.88;;;;;;;34.68;26.63;100106.25;5018130;28;20238;-59
2023/07/14 09:44:30;;;;;;;6.43;1.52;;;;;;;35.13;26.96;100106.34;5011642;28;20190;-59
2023/07/14 09:46:58;;;;;;;6.10;1.80;;;;;;;32.65;28.63;100099.81;5011695;28;20191;-59
2023/07/14 09:49:57;;;;;;;12.05;2.33;;;;;;;30.31;31.23;100110.34;5013834;28;20182;-58
2023/07/14 09:52:25;;;;;;;6.63;1.83;;;;;;;31.35;30.97;100104.63;5018248;28;20235;-57
2023/07/14 09:54:57;;;;;;;3.97;1.85;;;;;;;31.23;30.34;100108.00;5010815;28;20187;-58
2023/07/14 09:57:32;;;;;;;4.20;1.60;;;;;;;29.53;32.12;100112.09;5013562;28;20646;-57
2023/07/14 10:00:13;;;;;;;7.75;2.75;;;;;;;30.23;32.06;100098.97;5011968;28;20183;-59
2023/07/14 10:02:39;;;;;;;5.65;2.10;;;;;;;29.45;33.28;100102.56;4975506;28;20215;-58
2023/07/14 10:05:36;;;;;;;2.63;1.88;;;;;;;29.42;34.12;100108.25;4998413;28;20198;-58
2023/07/14 10:08:21;;;;;;;4.82;1.85;;;;;;;29.24;32.79;100096.44;5002039;28;20250;-58
2023/07/14 10:10:47;;;;;;;4.55;1.88;;;;;;;27.97;35.17;100093.66;5003930;28;20241;-58
2023/07/14 10:13:22;;;;;;;9.40;1.90;;;;;;;28.87;33.92;100095.28;5006325;28;20187;-59
2023/07/14 10:16:15;;;;;;;4.43;1.58;;;;;;;29.78;32.21;100089.19;5000817;28;20210;-58
2023/07/14 10:18:57;;;;;;;8.57;2.08;;;;;;;28.51;34.44;100089.34;5006855;28;20293;-58
2023/07/14 10:21:33;;;;;;;6.53;2.03;;;;;;;28.43;34.73;100084.22;5004697;28;20794;-57
2023/07/14 10:24:04;;;;;;;5.05;1.92;;;;;;;28.12;34.89;100082.94;5001347;28;20190;-58
2023/07/14 10:26:33;;;;;;;9.85;1.83;;;;;;;28.82;35.17;100070.22;4993192;28;20194;-57
2023/07/14 10:28:59;;;;;;;4.53;2.05;;;;;;;29.33;33.16;100067.94;4995584;28;20318;-56
2023/07/14 10:31:33;;;;;;;6.32;1.88;;;;;;;28.63;33.66;100063.91;4993781;28;20234;-57
2023/07/14 10:34:14;;;;;;;6.53;1.90;;;;;;;27.28;35.88;100058.38;5001097;28;20245;-58
2023/07/14 10:36:40;;;;;;;4.00;1.45;;;;;;;27.17;36.45;100062.38;4999082;28;20654;-59
2023/07/14 10:39:14;;;;;;;6.47;1.90;;;;;;;27.93;36.64;100058.88;5003068;28;20214;-58
2023/07/14 10:41:45;;;;;;;5.22;2.10;;;;;;;28.30;36.11;100055.94;4989415;28;20285;-59
2023/07/14 10:44:22;;;;;;;6.70;2.08;;;;;;;28.59;34.34;100060.03;4997978;28;20186;-57
2023/07/14 10:46:54;;;;;;;4.85;1.83;;;;;;;28.11;35.78;100055.72;5000312;28;20578;-58
2023/07/14 10:49:36;;;;;;;5.13;1.80;;;;;;;27.56;35.59;100045.13;4997167;28;20661;-59
2023/07/14 10:52:13;;;;;;;4.85;2.05;;;;;;;27.57;35.79;100041.47;4989704;28;20256;-59
2023/07/14 10:54:52;;;;;;;5.40;1.55;;;;;;;27.41;36.92;100039.19;5003857;28;20172;-58
2023/07/14 10:57:33;;;;;;;7.78;1.73;;;;;;;26.78;37.71;100046.09;4996040;28;20265;-58
2023/07/14 11:00:15;;;;;;;6.05;1.75;;;;;;;26.53;38.26;100048.28;4998586;28;20203;-59
2023/07/14 11:02:45;;;;;;;4.43;1.90;;;;;;;26.19;38.58;100041.88;4956023;28;20231;-59
2023/07/14 11:05:19;;;;;;;5.50;1.63;;;;;;;26.32;40.24;100041.19;5006613;28;20187;-60
2023/07/14 11:07:45;;;;;;;4.93;1.77;;;;;;;26.05;39.09;100041.72;4994512;28;20218;-59
2023/07/14 11:10:17;;;;;;;3.28;1.50;;;;;;;26.08;39.49;100045.84;4986716;28;20627;-59
2023/07/14 11:13:08;;;;;;;6.95;2.03;;;;;;;26.30;41.42;100048.50;5006550;28;20541;-59
2023/07/14 11:15:49;;;;;;;6.80;1.88;;;;;;;26.33;39.86;100045.47;4976294;28;20289;-58
2023/07/14 11:18:32;;;;;;;9.10;2.10;;;;;;;26.56;39.45;100037.34;4983877;28;20211;-59
2023/07/14 11:21:11;;;;;;;6.07;1.92;;;;;;;26.63;41.84;100032.13;4973867;28;20231;-59
2023/07/14 11:23:50;;;;;;;5.00;2.25;;;;;;;26.81;40.51;100029.84;4993744;28;20551;-58
2023/07/14 11:26:39;;;;;;;7.95;2.03;;;;;;;26.44;40.34;100025.69;4994478;28;20198;-62
2023/07/14 11:29:15;;;;;;;8.25;1.95;;;;;;;26.55;40.21;100014.63;5002204;28;20227;-59
2023/07/14 11:31:48;;;;;;;7.20;1.70;;;;;;;26.53;40.83;99984.97;4952682;28;20223;-60